createdAt,value
2023-02-15T00:00:57.786Z,15.46
2023-02-15T00:03:23.949Z,15.45
2023-02-15T00:05:50.127Z,15.44
2023-02-15T00:08:16.225Z,15.43
2023-02-15T00:10:42.318Z,15.43
2023-02-15T00:13:08.528Z,15.45
2023-02-15T00:15:34.662Z,15.42
2023-02-15T00:18:00.806Z,15.43
2023-02-15T00:20:26.924Z,15.42
2023-02-15T00:22:53.015Z,15.43
2023-02-15T00:25:19.132Z,15.41
2023-02-15T00:27:45.250Z,15.41
2023-02-15T00:30:11.464Z,15.42
2023-02-15T00:32:37.615Z,15.41
2023-02-15T00:35:03.730Z,15.41
2023-02-15T00:37:29.820Z,15.41
2023-02-15T00:39:55.941Z,15.40
2023-02-15T00:42:22.060Z,15.40
2023-02-15T00:44:48.159Z,15.39
2023-02-15T00:47:14.264Z,15.40
2023-02-15T00:49:40.434Z,15.39
2023-02-15T00:52:06.532Z,15.39
2023-02-15T00:54:32.634Z,15.38
2023-02-15T00:56:58.765Z,15.38
2023-02-15T00:59:24.882Z,15.38
2023-02-15T01:01:50.990Z,15.38
2023-02-15T01:04:17.146Z,15.37
2023-02-15T01:06:43.288Z,15.37
2023-02-15T01:09:09.401Z,15.36
2023-02-15T01:11:35.610Z,15.37
2023-02-15T01:14:01.735Z,15.37
2023-02-15T01:16:27.999Z,15.37
2023-02-15T01:18:54.171Z,15.34
2023-02-15T01:21:20.283Z,15.37
2023-02-15T01:23:46.388Z,15.38
2023-02-15T01:26:12.502Z,15.38
2023-02-15T01:28:38.633Z,15.38
2023-02-15T01:31:04.819Z,15.37
2023-02-15T01:33:30.958Z,15.36
2023-02-15T01:35:57.062Z,15.36
2023-02-15T01:38:23.162Z,15.34
2023-02-15T01:40:49.393Z,15.35
2023-02-15T01:43:15.511Z,15.36
2023-02-15T01:45:41.615Z,15.35
2023-02-15T01:48:07.733Z,15.34
2023-02-15T01:50:33.834Z,15.34
2023-02-15T01:52:59.950Z,15.33
2023-02-15T01:55:26.095Z,15.33
2023-02-15T01:57:52.208Z,15.32
2023-02-15T02:00:18.299Z,15.31
2023-02-15T02:02:44.476Z,15.32
2023-02-15T02:05:10.627Z,15.31
2023-02-15T02:07:36.725Z,15.32
2023-02-15T02:10:03.260Z,15.32
2023-02-15T02:12:29.596Z,15.30
2023-02-15T02:14:55.750Z,15.30
2023-02-15T02:17:21.870Z,15.31
2023-02-15T02:19:47.990Z,15.30
2023-02-15T02:22:14.093Z,15.31
2023-02-15T02:24:40.258Z,15.30
2023-02-15T02:27:06.398Z,15.30
2023-02-15T02:29:32.500Z,15.29
2023-02-15T02:31:58.670Z,15.29
2023-02-15T02:34:24.851Z,15.29
2023-02-15T02:36:50.983Z,15.28
2023-02-15T02:39:17.114Z,15.28
2023-02-15T02:41:43.226Z,15.27
2023-02-15T02:44:09.328Z,15.28
2023-02-15T02:46:35.590Z,15.28
2023-02-15T02:49:01.763Z,15.28
2023-02-15T02:51:27.890Z,15.27
2023-02-15T02:53:54.016Z,15.26
2023-02-15T02:56:20.142Z,15.26
2023-02-15T02:58:46.241Z,15.25
2023-02-15T03:01:12.771Z,15.25
2023-02-15T03:03:38.880Z,15.25
2023-02-15T03:06:04.982Z,15.25
2023-02-15T03:08:31.101Z,15.25
2023-02-15T03:10:57.220Z,15.24
2023-02-15T03:13:23.319Z,15.24
2023-02-15T03:15:49.478Z,15.24
2023-02-15T03:18:15.603Z,15.24
2023-02-15T03:20:41.709Z,15.24
2023-02-15T03:23:07.832Z,15.24
2023-02-15T03:25:33.928Z,15.23
2023-02-15T03:28:00.033Z,15.22
2023-02-15T03:30:26.299Z,15.22
2023-02-15T03:32:52.444Z,15.22
2023-02-15T03:35:18.565Z,15.21
2023-02-15T03:37:44.786Z,15.21
2023-02-15T03:40:10.915Z,15.20
2023-02-15T03:42:37.030Z,15.20
2023-02-15T03:45:03.204Z,15.21
2023-02-15T03:47:29.472Z,15.20
2023-02-15T03:49:55.662Z,15.19
2023-02-15T03:52:21.804Z,15.19
2023-02-15T03:54:47.921Z,15.19
2023-02-15T03:57:14.032Z,15.18
2023-02-15T03:59:40.161Z,15.18
2023-02-15T04:02:06.264Z,15.19
2023-02-15T04:04:32.366Z,15.18
2023-02-15T04:06:58.490Z,15.18
2023-02-15T04:09:24.596Z,15.18
2023-02-15T04:11:50.698Z,15.16
2023-02-15T04:14:16.806Z,15.16
2023-02-15T04:16:42.943Z,15.16
2023-02-15T04:19:09.078Z,15.16
2023-02-15T04:21:35.188Z,15.15
2023-02-15T04:24:01.332Z,15.16
2023-02-15T04:26:27.429Z,15.16
2023-02-15T04:28:53.570Z,15.16
2023-02-15T04:31:19.756Z,15.15
2023-02-15T04:33:45.918Z,15.14
2023-02-15T04:36:12.046Z,15.15
2023-02-15T04:38:38.154Z,15.14
2023-02-15T04:41:04.262Z,15.13
2023-02-15T04:43:30.378Z,15.11
2023-02-15T04:45:56.536Z,15.10
2023-02-15T04:48:22.630Z,15.10
2023-02-15T04:50:48.758Z,15.10
2023-02-15T04:53:14.859Z,15.10
2023-02-15T04:55:40.985Z,15.09
2023-02-15T04:58:07.149Z,15.10
2023-02-15T05:00:33.236Z,15.10
2023-02-15T05:02:59.438Z,15.09
2023-02-15T05:05:25.657Z,15.09
2023-02-15T05:07:51.773Z,15.11
2023-02-15T05:10:17.879Z,15.10
2023-02-15T05:12:44.001Z,15.09
2023-02-15T05:15:10.111Z,15.10
2023-02-15T05:17:36.234Z,15.09
2023-02-15T05:20:02.614Z,15.07
2023-02-15T05:22:28.720Z,15.06
2023-02-15T05:24:54.822Z,15.08
2023-02-15T05:27:20.925Z,15.06
2023-02-15T05:29:47.029Z,15.07
2023-02-15T05:32:13.221Z,15.06
2023-02-15T05:34:39.468Z,15.07
2023-02-15T05:37:05.587Z,15.08
2023-02-15T05:39:31.741Z,15.07
2023-02-15T05:41:57.861Z,15.06
2023-02-15T05:44:23.981Z,15.07
2023-02-15T05:46:50.101Z,15.06
2023-02-15T05:49:16.227Z,15.05
2023-02-15T05:51:42.345Z,15.05
2023-02-15T05:54:08.486Z,15.04
2023-02-15T05:56:34.700Z,15.05
2023-02-15T05:59:00.790Z,15.04
2023-02-15T06:01:26.900Z,15.04
2023-02-15T06:03:53.097Z,15.03
2023-02-15T06:06:19.251Z,15.03
2023-02-15T06:08:45.351Z,15.03
2023-02-15T06:11:11.570Z,15.03
2023-02-15T06:13:38.947Z,15.03
2023-02-15T06:16:05.698Z,15.04
2023-02-15T06:18:31.969Z,15.03
2023-02-15T06:20:58.069Z,15.03
2023-02-15T06:23:24.170Z,15.02
2023-02-15T06:25:50.373Z,15.01
2023-02-15T06:28:16.479Z,15.01
2023-02-15T06:30:42.705Z,15.02
2023-02-15T06:33:08.883Z,15.00
2023-02-15T06:35:34.992Z,15.00
2023-02-15T06:38:01.105Z,15.01
2023-02-15T06:40:27.257Z,15.01
2023-02-15T06:42:53.359Z,14.99
2023-02-15T06:45:19.470Z,14.99
2023-02-15T06:47:45.597Z,14.99
2023-02-15T06:50:11.707Z,14.99
2023-02-15T06:52:37.805Z,14.98
2023-02-15T06:55:03.934Z,14.97
2023-02-15T06:57:30.032Z,14.98
2023-02-15T06:59:56.145Z,14.99
2023-02-15T07:02:22.286Z,14.99
2023-02-15T07:04:48.441Z,14.99
2023-02-15T07:07:14.547Z,14.99
2023-02-15T07:09:40.678Z,14.99
2023-02-15T07:12:06.784Z,14.99
2023-02-15T07:14:32.880Z,14.98
2023-02-15T07:16:58.987Z,14.97
2023-02-15T07:19:25.134Z,14.98
2023-02-15T07:21:51.247Z,14.97
2023-02-15T07:24:17.448Z,14.97
2023-02-15T07:26:43.556Z,14.95
2023-02-15T07:29:09.649Z,14.94
2023-02-15T07:31:35.785Z,14.94
2023-02-15T07:34:01.889Z,14.95
2023-02-15T07:36:28.009Z,14.95
2023-02-15T07:38:54.146Z,14.94
2023-02-15T07:41:20.262Z,14.93
2023-02-15T07:43:46.382Z,14.93
2023-02-15T07:46:12.603Z,14.91
2023-02-15T07:48:38.772Z,14.91
2023-02-15T07:51:04.862Z,14.91
2023-02-15T07:53:30.993Z,14.93
2023-02-15T07:55:57.094Z,14.92
2023-02-15T07:58:23.190Z,14.91
2023-02-15T08:00:49.314Z,14.90
2023-02-15T08:03:15.531Z,14.89
2023-02-15T08:05:41.776Z,14.90
2023-02-15T08:08:07.920Z,14.91
2023-02-15T08:10:34.025Z,14.91
2023-02-15T08:13:00.147Z,14.90
2023-02-15T08:15:26.335Z,14.87
2023-02-15T08:17:52.455Z,14.86
2023-02-15T08:20:18.564Z,14.84
2023-02-15T08:22:44.683Z,14.84
2023-02-15T08:25:10.805Z,14.83
2023-02-15T08:27:37.005Z,14.84
2023-02-15T08:30:03.233Z,14.84
2023-02-15T08:32:29.390Z,14.84
2023-02-15T08:34:55.517Z,14.83
2023-02-15T08:37:21.650Z,14.83
2023-02-15T08:39:47.753Z,14.82
2023-02-15T08:42:13.900Z,14.82
2023-02-15T08:44:40.595Z,14.82
2023-02-15T08:47:06.726Z,14.82
2023-02-15T08:49:32.879Z,14.80
2023-02-15T08:51:59.015Z,14.82
2023-02-15T08:54:25.115Z,14.82
2023-02-15T08:56:51.232Z,14.82
2023-02-15T08:59:17.410Z,14.80
2023-02-15T09:01:43.555Z,14.81
2023-02-15T09:04:09.900Z,14.81
2023-02-15T09:06:36.033Z,14.84
2023-02-15T09:09:02.137Z,14.84
2023-02-15T09:11:28.241Z,14.84
2023-02-15T09:13:54.363Z,14.85
2023-02-15T09:16:20.520Z,14.81
2023-02-15T09:18:46.647Z,14.80
2023-02-15T09:21:12.885Z,14.80
2023-02-15T09:23:38.991Z,14.79
2023-02-15T09:26:05.086Z,14.79
2023-02-15T09:28:31.224Z,14.78
2023-02-15T09:30:57.595Z,14.79
2023-02-15T09:33:23.743Z,14.83
2023-02-15T09:35:49.879Z,14.84
2023-02-15T09:38:15.978Z,14.84
2023-02-15T09:40:42.099Z,14.85
2023-02-15T09:43:08.211Z,14.85
2023-02-15T09:45:34.313Z,14.84
2023-02-15T09:48:00.420Z,14.86
2023-02-15T09:50:26.546Z,14.86
2023-02-15T09:52:52.662Z,14.84
2023-02-15T09:55:18.777Z,14.83
2023-02-15T09:57:44.878Z,14.82
2023-02-15T10:00:10.981Z,14.84
2023-02-15T10:02:37.095Z,14.83
2023-02-15T10:05:03.241Z,14.84
2023-02-15T10:07:29.419Z,14.84
2023-02-15T10:09:55.546Z,14.84
2023-02-15T10:12:21.711Z,14.84
2023-02-15T10:14:47.824Z,14.83
2023-02-15T10:17:13.972Z,14.84
2023-02-15T10:19:40.096Z,14.84
2023-02-15T10:22:06.190Z,14.84
2023-02-15T10:24:32.289Z,14.84
2023-02-15T10:26:58.405Z,14.82
2023-02-15T10:29:24.497Z,14.83
2023-02-15T10:31:50.703Z,14.83
2023-02-15T10:34:16.951Z,14.85
2023-02-15T10:36:43.057Z,14.81
2023-02-15T10:39:09.170Z,14.77
2023-02-15T10:41:35.347Z,14.79
2023-02-15T10:44:01.484Z,14.79
2023-02-15T10:46:27.728Z,14.79
2023-02-15T10:48:54.301Z,14.80
2023-02-15T10:51:20.420Z,14.80
2023-02-15T10:53:46.523Z,14.79
2023-02-15T10:56:12.645Z,14.83
2023-02-15T10:58:38.737Z,14.84
2023-02-15T11:01:05.160Z,14.85
2023-02-15T11:03:31.481Z,14.86
2023-02-15T11:05:57.577Z,14.86
2023-02-15T11:08:23.671Z,14.86
2023-02-15T11:10:49.793Z,14.86
2023-02-15T11:13:15.891Z,14.87
2023-02-15T11:15:42.029Z,14.87
2023-02-15T11:18:08.161Z,14.87
2023-02-15T11:20:34.286Z,14.87
2023-02-15T11:23:00.433Z,14.88
2023-02-15T11:25:26.630Z,14.88
2023-02-15T11:27:52.767Z,14.88
2023-02-15T11:30:18.943Z,14.87
2023-02-15T11:32:45.084Z,14.88
2023-02-15T11:35:11.183Z,14.87
2023-02-15T11:37:37.275Z,14.89
2023-02-15T11:40:03.800Z,14.89
2023-02-15T11:42:29.900Z,14.90
2023-02-15T11:44:56.026Z,14.89
2023-02-15T11:47:22.144Z,14.90
2023-02-15T11:49:48.242Z,14.90
2023-02-15T11:52:14.383Z,14.90
2023-02-15T11:54:40.572Z,14.90
2023-02-15T11:57:06.712Z,14.92
2023-02-15T11:59:32.820Z,14.93
2023-02-15T12:01:58.962Z,14.93
2023-02-15T12:04:25.075Z,14.94
2023-02-15T12:06:51.198Z,14.94
2023-02-15T12:09:17.326Z,14.94
2023-02-15T12:11:43.432Z,14.94
2023-02-15T12:14:09.564Z,14.95
2023-02-15T12:16:35.827Z,14.95
2023-02-15T12:19:02.221Z,14.96
2023-02-15T12:21:28.326Z,14.97
2023-02-15T12:23:54.451Z,14.98
2023-02-15T12:26:20.549Z,14.99
2023-02-15T12:28:46.668Z,15.00
2023-02-15T12:31:12.971Z,15.00
2023-02-15T12:33:39.177Z,15.00
2023-02-15T12:36:05.358Z,14.99
2023-02-15T12:38:31.548Z,15.01
2023-02-15T12:40:57.669Z,15.01
2023-02-15T12:43:23.767Z,15.02
2023-02-15T12:45:49.882Z,15.03
2023-02-15T12:48:15.994Z,15.01
2023-02-15T12:50:42.139Z,15.03
2023-02-15T12:53:08.289Z,15.04
2023-02-15T12:55:34.382Z,15.04
2023-02-15T12:58:00.496Z,15.05
2023-02-15T13:00:26.653Z,15.05
2023-02-15T13:02:52.788Z,15.06
2023-02-15T13:05:18.910Z,15.06
2023-02-15T13:07:45.053Z,15.07
2023-02-15T13:10:11.154Z,15.07
2023-02-15T13:12:37.292Z,15.07
2023-02-15T13:15:03.476Z,15.07
2023-02-15T13:17:29.598Z,15.08
2023-02-15T13:19:55.766Z,15.08
2023-02-15T13:22:21.894Z,15.10
2023-02-15T13:24:48.192Z,15.10
2023-02-15T13:27:16.049Z,15.13
2023-02-15T13:29:42.369Z,15.12
2023-02-15T13:32:08.547Z,15.15
2023-02-15T13:34:34.692Z,15.15
2023-02-15T13:37:00.910Z,15.15
2023-02-15T13:39:27.026Z,15.16
2023-02-15T13:41:53.118Z,15.16
2023-02-15T13:44:19.289Z,15.17
2023-02-15T13:46:45.433Z,15.18
2023-02-15T13:49:11.554Z,15.19
2023-02-15T13:51:37.784Z,15.18
2023-02-15T13:54:03.889Z,15.19
2023-02-15T13:56:29.988Z,15.20
2023-02-15T13:58:56.092Z,15.21
2023-02-15T14:01:22.364Z,15.20
2023-02-15T14:03:48.529Z,15.22
2023-02-15T14:06:14.675Z,15.22
2023-02-15T14:08:40.779Z,15.24
2023-02-15T14:11:06.905Z,15.24
2023-02-15T14:13:33.045Z,15.25
2023-02-15T14:15:59.163Z,15.26
2023-02-15T14:18:25.281Z,15.26
2023-02-15T14:20:51.396Z,15.27
2023-02-15T14:23:17.497Z,15.28
2023-02-15T14:25:43.599Z,15.29
2023-02-15T14:28:09.710Z,15.29
2023-02-15T14:30:35.918Z,15.29
2023-02-15T14:33:02.095Z,15.31
2023-02-15T14:35:28.811Z,15.31
2023-02-15T14:37:55.182Z,15.31
2023-02-15T14:40:21.278Z,15.31
2023-02-15T14:42:47.402Z,15.32
2023-02-15T14:45:13.577Z,15.32
2023-02-15T14:47:39.753Z,15.34
2023-02-15T14:50:05.919Z,15.36
2023-02-15T14:52:32.025Z,15.36
2023-02-15T14:54:58.128Z,15.36
2023-02-15T14:57:24.286Z,15.37
2023-02-15T14:59:50.380Z,15.37
2023-02-15T15:02:16.492Z,15.38
2023-02-15T15:04:42.618Z,15.39
2023-02-15T15:07:08.701Z,15.38
2023-02-15T15:09:34.795Z,15.39
2023-02-15T15:12:00.914Z,15.40
2023-02-15T15:14:27.185Z,15.39
2023-02-15T15:16:53.490Z,15.42
2023-02-15T15:19:19.681Z,15.44
2023-02-15T15:21:45.766Z,15.42
2023-02-15T15:24:11.857Z,15.42
2023-02-15T15:26:37.982Z,15.45
2023-02-15T15:29:04.078Z,15.46
2023-02-15T15:31:30.316Z,15.46
2023-02-15T15:33:56.489Z,15.47
2023-02-15T15:36:22.592Z,15.46
2023-02-15T15:38:48.853Z,15.47
2023-02-15T15:41:15.074Z,15.48
2023-02-15T15:43:41.331Z,15.48
2023-02-15T15:46:07.548Z,15.46
2023-02-15T15:48:34.072Z,15.49
2023-02-15T15:51:00.200Z,15.49
2023-02-15T15:53:26.299Z,15.49
2023-02-15T15:55:52.477Z,15.49
2023-02-15T15:58:18.593Z,15.48
2023-02-15T16:00:44.679Z,15.50
2023-02-15T16:03:12.169Z,15.51
2023-02-15T16:05:38.336Z,15.51
2023-02-15T16:08:04.457Z,15.52
2023-02-15T16:10:30.683Z,15.54
2023-02-15T16:12:56.808Z,15.55
2023-02-15T16:15:22.908Z,15.54
2023-02-15T16:17:49.022Z,15.57
2023-02-15T16:20:15.129Z,15.56
2023-02-15T16:22:41.257Z,15.55
2023-02-15T16:25:07.412Z,15.59
2023-02-15T16:27:33.515Z,15.58
2023-02-15T16:29:59.680Z,15.59
2023-02-15T16:32:25.812Z,15.59
2023-02-15T16:34:51.915Z,15.60
2023-02-15T16:37:18.012Z,15.61
2023-02-15T16:39:44.140Z,15.60
2023-02-15T16:42:10.301Z,15.60
2023-02-15T16:44:36.411Z,15.61
2023-02-15T16:47:02.648Z,15.63
2023-02-15T16:49:28.803Z,15.63
2023-02-15T16:51:54.959Z,15.64
2023-02-15T16:54:21.089Z,15.64
2023-02-15T16:56:47.237Z,15.65
2023-02-15T16:59:15.039Z,15.65
2023-02-15T17:01:41.227Z,15.66
2023-02-15T17:04:07.368Z,15.66
2023-02-15T17:06:33.495Z,15.65
2023-02-15T17:08:59.653Z,15.65
2023-02-15T17:11:25.760Z,15.65
2023-02-15T17:13:51.864Z,15.66
2023-02-15T17:16:18.011Z,15.66
2023-02-15T17:18:44.167Z,15.66
2023-02-15T17:21:10.273Z,15.66
2023-02-15T17:23:36.389Z,15.66
2023-02-15T17:26:02.769Z,15.67
2023-02-15T17:28:29.083Z,15.67
2023-02-15T17:30:55.420Z,15.67
2023-02-15T17:33:21.556Z,15.67
2023-02-15T17:35:47.684Z,15.67
2023-02-15T17:38:13.955Z,15.66
2023-02-15T17:40:40.068Z,15.66
2023-02-15T17:43:06.177Z,15.67
2023-02-15T17:45:32.374Z,15.67
2023-02-15T17:47:58.484Z,15.67
2023-02-15T17:50:24.602Z,15.67
2023-02-15T17:52:51.219Z,15.66
2023-02-15T17:55:17.345Z,15.66
2023-02-15T17:57:43.486Z,15.66
2023-02-15T18:00:09.711Z,15.67
2023-02-15T18:02:35.840Z,15.66
2023-02-15T18:05:01.993Z,15.65
2023-02-15T18:07:28.163Z,15.67
2023-02-15T18:09:54.291Z,15.67
2023-02-15T18:12:20.430Z,15.66
2023-02-15T18:14:46.633Z,15.66
2023-02-15T18:17:12.765Z,15.67
2023-02-15T18:19:38.879Z,15.67
2023-02-15T18:22:05.039Z,15.67
2023-02-15T18:24:31.131Z,15.67
2023-02-15T18:26:57.234Z,15.67
2023-02-15T18:29:23.367Z,15.66
2023-02-15T18:31:49.525Z,15.67
2023-02-15T18:34:15.710Z,15.65
2023-02-15T18:36:41.821Z,15.66
2023-02-15T18:39:09.115Z,15.66
2023-02-15T18:41:35.267Z,15.65
2023-02-15T18:44:01.395Z,15.66
2023-02-15T18:46:27.503Z,15.66
2023-02-15T18:48:53.590Z,15.65
2023-02-15T18:51:19.774Z,15.64
2023-02-15T18:53:45.880Z,15.65
2023-02-15T18:56:11.996Z,15.64
2023-02-15T18:58:38.124Z,15.64
2023-02-15T19:01:04.711Z,15.64
2023-02-15T19:03:31.064Z,15.64
2023-02-15T19:05:57.183Z,15.64
2023-02-15T19:08:23.279Z,15.63
2023-02-15T19:10:49.367Z,15.63
2023-02-15T19:13:15.494Z,15.60
2023-02-15T19:15:41.604Z,15.63
2023-02-15T19:18:07.708Z,15.62
2023-02-15T19:20:33.831Z,15.62
2023-02-15T19:22:59.931Z,15.61
2023-02-15T19:25:26.061Z,15.60
2023-02-15T19:27:52.184Z,15.61
2023-02-15T19:30:18.314Z,15.61
2023-02-15T19:32:44.491Z,15.60
2023-02-15T19:35:10.630Z,15.60
2023-02-15T19:37:36.732Z,15.59
2023-02-15T19:40:02.898Z,15.60
2023-02-15T19:42:29.043Z,15.60
2023-02-15T19:44:55.152Z,15.60
2023-02-15T19:47:21.264Z,15.58
2023-02-15T19:49:47.420Z,15.60
2023-02-15T19:52:13.597Z,15.59
2023-02-15T19:54:39.702Z,15.58
2023-02-15T19:57:05.848Z,15.57
2023-02-15T19:59:31.962Z,15.57
2023-02-15T20:01:58.094Z,15.59
2023-02-15T20:04:24.311Z,15.58
2023-02-15T20:06:50.406Z,15.58
2023-02-15T20:09:16.510Z,15.58
2023-02-15T20:11:42.636Z,15.56
2023-02-15T20:14:08.745Z,15.56
2023-02-15T20:16:34.902Z,15.56
2023-02-15T20:19:01.040Z,15.57
2023-02-15T20:21:27.157Z,15.55
2023-02-15T20:23:53.272Z,15.57
2023-02-15T20:26:19.400Z,15.56
2023-02-15T20:28:45.500Z,15.56
2023-02-15T20:31:11.718Z,15.57
2023-02-15T20:33:37.880Z,15.55
2023-02-15T20:36:03.994Z,15.57
2023-02-15T20:38:30.094Z,15.54
2023-02-15T20:40:56.213Z,15.53
2023-02-15T20:43:22.321Z,15.54
2023-02-15T20:45:48.436Z,15.54
2023-02-15T20:48:14.567Z,15.53
2023-02-15T20:50:40.678Z,15.53
2023-02-15T20:53:06.776Z,15.52
2023-02-15T20:55:32.952Z,15.52
2023-02-15T20:57:59.047Z,15.53
2023-02-15T21:00:25.161Z,15.53
2023-02-15T21:02:51.315Z,15.52
2023-02-15T21:05:17.420Z,15.52
2023-02-15T21:07:43.533Z,15.50
2023-02-15T21:10:22.069Z,15.50
2023-02-15T21:12:48.182Z,15.50
2023-02-15T21:15:14.287Z,15.51
2023-02-15T21:17:40.376Z,15.50
2023-02-15T21:20:06.484Z,15.51
2023-02-15T21:22:32.622Z,15.50
2023-02-15T21:24:58.714Z,15.51
2023-02-15T21:27:24.878Z,15.50
2023-02-15T21:29:51.032Z,15.49
2023-02-15T21:32:17.258Z,15.50
2023-02-15T21:34:44.765Z,15.49
2023-02-15T21:37:10.944Z,15.48
2023-02-15T21:39:37.166Z,15.49
2023-02-15T21:42:03.276Z,15.50
2023-02-15T21:44:29.388Z,15.48
2023-02-15T21:46:55.522Z,15.48
2023-02-15T21:49:21.645Z,15.48
2023-02-15T21:51:47.797Z,15.49
2023-02-15T21:54:13.914Z,15.49
2023-02-15T21:56:40.019Z,15.49
2023-02-15T21:59:06.170Z,15.49
2023-02-15T22:01:32.258Z,15.50
2023-02-15T22:03:58.373Z,15.50
2023-02-15T22:06:25.021Z,15.50
2023-02-15T22:08:51.120Z,15.51
2023-02-15T22:11:17.242Z,15.50
2023-02-15T22:13:43.369Z,15.50
2023-02-15T22:16:09.543Z,15.50
2023-02-15T22:18:35.683Z,15.50
2023-02-15T22:21:02.438Z,15.49
2023-02-15T22:23:28.884Z,15.50
2023-02-15T22:25:54.979Z,15.50
2023-02-15T22:28:21.116Z,15.49
2023-02-15T22:30:47.307Z,15.49
2023-02-15T22:33:13.457Z,15.48
2023-02-15T22:35:39.594Z,15.48
2023-02-15T22:38:05.775Z,15.47
2023-02-15T22:40:31.927Z,15.47
2023-02-15T22:42:58.083Z,15.46
2023-02-15T22:45:24.169Z,15.46
2023-02-15T22:47:50.281Z,15.46
2023-02-15T22:50:16.400Z,15.46
2023-02-15T22:52:42.522Z,15.46
2023-02-15T22:55:08.640Z,15.45
2023-02-15T22:57:34.770Z,15.46
2023-02-15T23:00:00.891Z,15.46
2023-02-15T23:02:27.003Z,15.46
2023-02-15T23:04:53.205Z,15.45
2023-02-15T23:07:19.336Z,15.45
2023-02-15T23:09:45.468Z,15.46
2023-02-15T23:12:11.731Z,15.45
2023-02-15T23:14:37.829Z,15.43
2023-02-15T23:17:04.000Z,15.43
2023-02-15T23:19:30.187Z,15.45
2023-02-15T23:21:56.312Z,15.44
2023-02-15T23:24:22.552Z,15.43
2023-02-15T23:26:48.690Z,15.42
2023-02-15T23:29:14.800Z,15.42
2023-02-15T23:31:41.002Z,15.43
2023-02-15T23:34:07.169Z,15.42
2023-02-15T23:36:33.282Z,15.41
2023-02-15T23:38:59.389Z,15.42
2023-02-15T23:41:25.522Z,15.41
2023-02-15T23:43:51.660Z,15.41
2023-02-15T23:46:17.826Z,15.41
2023-02-15T23:48:44.083Z,15.40
2023-02-15T23:51:10.200Z,15.40
2023-02-15T23:53:36.294Z,15.40
2023-02-15T23:56:02.407Z,15.40
2023-02-15T23:58:28.495Z,15.40
